createdAt,value
2017-08-25T00:00:23.315Z,19.80
2017-08-25T00:02:51.542Z,19.80
2017-08-25T00:05:19.803Z,19.80
2017-08-25T00:07:48.035Z,19.80
2017-08-25T00:10:16.765Z,19.80
2017-08-25T00:12:45.025Z,19.70
2017-08-25T00:15:13.274Z,19.60
2017-08-25T00:17:41.500Z,19.60
2017-08-25T00:20:09.784Z,19.50
2017-08-25T00:22:38.016Z,19.50
2017-08-25T00:25:07.029Z,19.40
2017-08-25T00:27:36.311Z,19.30
2017-08-25T00:30:04.588Z,19.30
2017-08-25T00:32:32.856Z,19.30
2017-08-25T00:35:01.861Z,19.30
2017-08-25T00:37:30.089Z,19.30
2017-08-25T00:39:58.325Z,19.30
2017-08-25T00:42:26.572Z,19.30
2017-08-25T00:44:55.639Z,19.40
2017-08-25T00:47:23.931Z,19.40
2017-08-25T00:49:52.168Z,19.40
2017-08-25T00:52:20.435Z,19.40
2017-08-25T00:54:48.668Z,19.40
2017-08-25T00:57:17.696Z,19.40
2017-08-25T00:59:45.928Z,19.40
2017-08-25T01:02:14.881Z,19.40
2017-08-25T01:04:43.125Z,19.40
2017-08-25T01:07:11.377Z,19.40
2017-08-25T01:09:40.646Z,19.40
2017-08-25T01:12:08.902Z,19.30
2017-08-25T01:14:37.209Z,19.30
2017-08-25T01:17:05.449Z,19.30
2017-08-25T01:19:33.815Z,19.30
2017-08-25T01:22:02.067Z,19.30
2017-08-25T01:24:30.342Z,19.30
2017-08-25T01:26:58.598Z,19.30
2017-08-25T01:29:26.851Z,19.30
2017-08-25T01:31:55.092Z,19.30
2017-08-25T01:34:23.392Z,19.30
2017-08-25T01:36:51.616Z,19.30
2017-08-25T01:39:19.857Z,19.30
2017-08-25T01:41:48.112Z,19.40
2017-08-25T01:44:17.048Z,19.30
2017-08-25T01:46:45.284Z,19.30
2017-08-25T01:49:13.598Z,19.30
2017-08-25T01:51:41.830Z,19.30
2017-08-25T01:54:10.083Z,19.20
2017-08-25T01:56:38.358Z,19.20
2017-08-25T01:59:07.035Z,19.20
2017-08-25T02:01:35.335Z,19.20
2017-08-25T02:04:03.590Z,19.20
2017-08-25T02:06:31.873Z,19.10
2017-08-25T02:09:00.180Z,19.10
2017-08-25T02:11:28.569Z,19.10
2017-08-25T02:13:56.795Z,19.10
2017-08-25T02:16:25.104Z,19.10
2017-08-25T02:18:53.445Z,19.00
2017-08-25T02:21:21.716Z,19.00
2017-08-25T02:23:49.925Z,19.00
2017-08-25T02:26:19.055Z,19.00
2017-08-25T02:28:47.326Z,19.00
2017-08-25T02:31:15.610Z,19.00
2017-08-25T02:33:43.843Z,19.00
2017-08-25T02:36:12.107Z,18.90
2017-08-25T02:38:40.437Z,18.80
2017-08-25T02:41:08.691Z,18.80
2017-08-25T02:43:37.077Z,18.80
2017-08-25T02:46:05.298Z,18.80
2017-08-25T02:48:33.636Z,18.70
2017-08-25T02:51:01.928Z,18.60
2017-08-25T02:53:30.352Z,18.50
2017-08-25T02:55:58.618Z,18.40
2017-08-25T02:58:26.873Z,18.40
2017-08-25T03:00:55.150Z,18.40
2017-08-25T03:03:23.509Z,18.40
2017-08-25T03:05:51.788Z,18.40
2017-08-25T03:08:20.308Z,18.30
2017-08-25T03:10:48.545Z,18.40
2017-08-25T03:13:16.884Z,18.40
2017-08-25T03:15:45.263Z,18.30
2017-08-25T03:18:13.577Z,18.30
2017-08-25T03:20:41.914Z,18.30
2017-08-25T03:23:10.160Z,18.30
2017-08-25T03:25:38.398Z,18.30
2017-08-25T03:28:06.661Z,18.30
2017-08-25T03:30:35.012Z,18.20
2017-08-25T03:33:04.477Z,18.20
2017-08-25T03:35:32.844Z,18.20
2017-08-25T03:38:01.117Z,18.10
2017-08-25T03:40:29.412Z,18.10
2017-08-25T03:42:57.657Z,18.20
2017-08-25T03:45:26.801Z,18.20
2017-08-25T03:47:55.083Z,18.10
2017-08-25T03:50:23.325Z,18.10
2017-08-25T03:52:51.630Z,18.20
2017-08-25T03:55:19.900Z,18.20
2017-08-25T03:57:48.188Z,18.20
2017-08-25T04:00:16.520Z,18.20
2017-08-25T04:02:44.772Z,18.20
2017-08-25T04:05:13.013Z,18.20
2017-08-25T04:07:41.367Z,18.10
2017-08-25T04:10:09.640Z,18.10
2017-08-25T04:12:37.904Z,18.20
2017-08-25T04:15:06.159Z,18.20
2017-08-25T04:17:34.434Z,18.20
2017-08-25T04:20:02.725Z,18.20
2017-08-25T04:22:30.983Z,18.20
2017-08-25T04:25:00.117Z,18.20
2017-08-25T04:27:28.384Z,18.10
2017-08-25T04:29:56.666Z,18.20
2017-08-25T04:32:24.915Z,18.20
2017-08-25T04:34:53.342Z,18.20
2017-08-25T04:37:21.568Z,18.20
2017-08-25T04:39:49.861Z,18.10
2017-08-25T04:42:18.130Z,18.10
2017-08-25T04:44:46.433Z,18.10
2017-08-25T04:47:14.698Z,18.10
2017-08-25T04:49:42.966Z,18.10
2017-08-25T04:52:11.262Z,18.10
2017-08-25T04:54:39.521Z,18.10
2017-08-25T04:57:07.783Z,18.10
2017-08-25T04:59:36.074Z,18.10
2017-08-25T05:02:04.305Z,18.10
2017-08-25T05:04:32.564Z,18.10
2017-08-25T05:07:00.830Z,18.10
2017-08-25T05:09:29.078Z,18.10
2017-08-25T05:11:57.337Z,18.10
2017-08-25T05:14:26.362Z,18.20
2017-08-25T05:16:54.740Z,18.20
2017-08-25T05:19:23.107Z,18.20
2017-08-25T05:21:51.335Z,18.20
2017-08-25T05:24:20.381Z,18.20
2017-08-25T05:26:48.674Z,18.30
2017-08-25T05:29:16.928Z,18.30
2017-08-25T05:31:45.235Z,18.30
2017-08-25T05:34:13.614Z,18.20
2017-08-25T05:36:41.844Z,18.20
2017-08-25T05:39:10.159Z,18.20
2017-08-25T05:41:38.549Z,18.20
2017-08-25T05:44:06.804Z,18.20
2017-08-25T05:46:35.057Z,18.20
2017-08-25T05:49:03.315Z,18.20
2017-08-25T05:51:31.587Z,18.30
2017-08-25T05:53:59.860Z,18.30
2017-08-25T05:56:28.150Z,18.30
2017-08-25T05:58:57.204Z,18.50
2017-08-25T06:01:26.794Z,18.40
2017-08-25T06:03:55.789Z,18.60
2017-08-25T06:06:24.023Z,18.80
2017-08-25T06:08:52.323Z,18.90
2017-08-25T06:11:20.568Z,19.10
2017-08-25T06:13:48.813Z,19.10
2017-08-25T06:16:17.888Z,19.20
2017-08-25T06:18:47.420Z,19.20
2017-08-25T06:21:15.820Z,19.20
2017-08-25T06:23:44.204Z,19.20
2017-08-25T06:26:12.515Z,19.20
2017-08-25T06:28:40.753Z,19.20
2017-08-25T06:31:09.160Z,19.30
2017-08-25T06:33:37.438Z,19.50
2017-08-25T06:36:05.699Z,19.60
2017-08-25T06:38:34.587Z,19.80
2017-08-25T06:41:02.849Z,19.90
2017-08-25T06:43:31.093Z,20.10
2017-08-25T06:45:59.753Z,20.40
2017-08-25T06:48:28.009Z,20.60
2017-08-25T06:50:56.514Z,20.70
2017-08-25T06:53:25.591Z,21.20
2017-08-25T06:55:53.917Z,21.20
2017-08-25T06:58:22.166Z,21.50
2017-08-25T07:00:50.418Z,21.90
2017-08-25T07:03:18.733Z,22.20
2017-08-25T07:05:46.954Z,22.40
2017-08-25T07:08:15.233Z,22.80
2017-08-25T07:10:43.545Z,23.00
2017-08-25T07:13:11.785Z,23.40
2017-08-25T07:15:40.021Z,23.70
2017-08-25T07:18:08.285Z,24.00
2017-08-25T07:20:36.513Z,24.30
2017-08-25T07:23:04.877Z,24.50
2017-08-25T07:25:33.120Z,24.50
2017-08-25T07:28:01.417Z,24.60
2017-08-25T07:30:29.662Z,24.60
2017-08-25T07:32:57.948Z,24.80
2017-08-25T07:35:26.256Z,25.00
2017-08-25T07:37:54.514Z,25.20
2017-08-25T07:40:22.894Z,25.40
2017-08-25T07:42:51.302Z,25.70
2017-08-25T07:45:19.557Z,25.90
2017-08-25T07:47:47.852Z,26.10
2017-08-25T07:50:16.067Z,26.30
2017-08-25T07:52:44.375Z,26.40
2017-08-25T07:55:12.677Z,26.50
2017-08-25T07:57:40.977Z,26.70
2017-08-25T08:00:09.225Z,26.90
2017-08-25T08:02:37.526Z,27.20
2017-08-25T08:05:06.005Z,27.50
2017-08-25T08:07:34.410Z,27.80
2017-08-25T08:10:02.685Z,27.90
2017-08-25T08:12:31.096Z,28.00
2017-08-25T08:14:59.389Z,28.10
2017-08-25T08:17:27.769Z,28.40
2017-08-25T08:19:56.010Z,28.60
2017-08-25T08:22:24.297Z,28.80
2017-08-25T08:24:52.576Z,29.00
2017-08-25T08:27:21.024Z,29.20
2017-08-25T08:29:49.271Z,29.30
2017-08-25T08:32:17.564Z,29.30
2017-08-25T08:34:45.796Z,29.40
2017-08-25T08:37:14.089Z,29.50
2017-08-25T08:39:42.401Z,29.60
2017-08-25T08:42:11.424Z,29.90
2017-08-25T08:44:39.831Z,29.90
2017-08-25T08:47:08.042Z,30.10
2017-08-25T08:49:36.326Z,30.20
2017-08-25T08:52:04.597Z,30.30
2017-08-25T08:54:32.951Z,30.40
2017-08-25T08:57:01.177Z,30.50
2017-08-25T08:59:29.959Z,30.60
2017-08-25T09:01:58.234Z,30.60
2017-08-25T09:04:26.490Z,30.70
2017-08-25T09:06:54.893Z,30.80
2017-08-25T09:09:23.153Z,31.00
2017-08-25T09:11:51.417Z,31.20
2017-08-25T09:14:19.725Z,31.20
2017-08-25T09:16:47.966Z,31.40
2017-08-25T09:19:17.014Z,31.30
2017-08-25T09:21:45.699Z,31.30
2017-08-25T09:24:15.983Z,31.50
2017-08-25T09:26:44.619Z,31.30
2017-08-25T09:29:12.984Z,31.20
2017-08-25T09:31:41.262Z,31.30
2017-08-25T09:34:09.493Z,31.40
2017-08-25T09:36:37.760Z,31.60
2017-08-25T09:39:06.019Z,31.70
2017-08-25T09:41:34.297Z,31.80
2017-08-25T09:44:02.713Z,32.00
2017-08-25T09:46:30.988Z,32.10
2017-08-25T09:48:59.245Z,32.20
2017-08-25T09:51:27.503Z,32.00
2017-08-25T09:53:55.733Z,32.00
2017-08-25T09:56:24.003Z,32.00
2017-08-25T09:58:53.099Z,31.90
2017-08-25T10:01:21.378Z,31.80
2017-08-25T10:03:49.612Z,31.60
2017-08-25T10:06:17.934Z,31.40
2017-08-25T10:08:46.203Z,31.30
2017-08-25T10:11:14.433Z,31.00
2017-08-25T10:13:42.721Z,30.90
2017-08-25T10:16:11.089Z,30.70
2017-08-25T10:18:39.317Z,30.50
2017-08-25T10:21:07.568Z,30.30
2017-08-25T10:23:35.808Z,30.30
2017-08-25T10:26:04.083Z,30.30
2017-08-25T10:28:32.342Z,30.40
2017-08-25T10:31:00.719Z,30.40
2017-08-25T10:33:41.011Z,30.60
2017-08-25T10:36:21.306Z,30.70
2017-08-25T10:39:01.393Z,30.80
2017-08-25T10:41:41.520Z,30.90
2017-08-25T10:44:21.724Z,31.00
2017-08-25T10:46:50.111Z,31.20
2017-08-25T10:49:18.361Z,31.20
2017-08-25T10:51:47.411Z,31.30
2017-08-25T10:54:15.648Z,31.30
2017-08-25T10:56:43.901Z,31.40
2017-08-25T10:59:12.161Z,31.50
2017-08-25T11:01:40.411Z,31.50
2017-08-25T11:04:08.646Z,31.40
2017-08-25T11:06:36.913Z,31.50
2017-08-25T11:09:05.216Z,31.50
2017-08-25T11:11:33.474Z,31.60
2017-08-25T11:14:02.507Z,31.80
2017-08-25T11:16:30.788Z,31.70
2017-08-25T11:18:59.182Z,31.90
2017-08-25T11:21:27.526Z,32.20
2017-08-25T11:23:56.022Z,32.40
2017-08-25T11:26:24.259Z,32.50
2017-08-25T11:28:52.610Z,32.60
2017-08-25T11:31:25.754Z,32.90
2017-08-25T11:34:06.699Z,33.00
2017-08-25T11:36:54.380Z,33.10
2017-08-25T11:39:22.952Z,33.30
2017-08-25T11:41:51.224Z,33.60
2017-08-25T11:44:19.454Z,33.80
2017-08-25T11:46:47.972Z,33.80
2017-08-25T11:49:17.128Z,34.00
2017-08-25T11:51:45.574Z,34.10
2017-08-25T11:54:13.793Z,34.30
2017-08-25T11:56:42.125Z,34.20
2017-08-25T11:59:10.725Z,34.30
2017-08-25T12:01:39.766Z,34.50
2017-08-25T12:04:08.136Z,34.40
2017-08-25T12:06:36.600Z,34.20
2017-08-25T12:09:05.106Z,34.30
2017-08-25T12:11:33.656Z,34.10
2017-08-25T12:14:02.659Z,33.90
2017-08-25T12:16:30.902Z,33.90
2017-08-25T12:18:59.450Z,33.90
2017-08-25T12:21:27.723Z,33.80
2017-08-25T12:23:56.069Z,33.70
2017-08-25T12:26:24.459Z,33.30
2017-08-25T12:28:53.649Z,32.90
2017-08-25T12:31:21.915Z,32.60
2017-08-25T12:33:50.187Z,32.50
2017-08-25T12:36:18.526Z,32.40
2017-08-25T12:38:46.835Z,32.30
2017-08-25T12:41:15.072Z,32.30
2017-08-25T12:43:44.109Z,32.10
2017-08-25T12:46:12.549Z,32.10
2017-08-25T12:48:41.118Z,32.00
2017-08-25T12:51:09.382Z,32.00
2017-08-25T12:53:37.637Z,32.00
2017-08-25T12:56:06.002Z,31.80
2017-08-25T12:58:35.047Z,31.70
2017-08-25T13:01:03.301Z,31.70
2017-08-25T13:03:31.714Z,31.60
2017-08-25T13:06:00.004Z,31.60
2017-08-25T13:08:28.356Z,31.50
2017-08-25T13:10:56.735Z,31.40
2017-08-25T13:13:24.961Z,31.10
2017-08-25T13:15:53.258Z,30.90
2017-08-25T13:18:21.558Z,30.80
2017-08-25T13:20:49.773Z,30.90
2017-08-25T13:23:18.053Z,31.00
2017-08-25T13:25:46.302Z,31.00
2017-08-25T13:28:14.564Z,30.80
2017-08-25T13:30:42.920Z,30.80
2017-08-25T13:33:11.219Z,30.70
2017-08-25T13:35:39.456Z,30.50
2017-08-25T13:38:08.591Z,30.60
2017-08-25T13:40:36.824Z,30.60
2017-08-25T13:43:05.100Z,30.50
2017-08-25T13:45:35.598Z,30.50
2017-08-25T13:48:06.884Z,30.50
2017-08-25T13:50:40.447Z,30.20
2017-08-25T13:53:11.121Z,30.00
2017-08-25T13:55:39.981Z,30.00
2017-08-25T13:58:08.240Z,30.10
2017-08-25T14:00:36.496Z,30.10
2017-08-25T14:03:04.733Z,30.00
2017-08-25T14:05:33.138Z,30.00
2017-08-25T14:08:01.436Z,29.80
2017-08-25T14:10:29.718Z,29.70
2017-08-25T14:12:58.184Z,29.60
2017-08-25T14:15:26.605Z,29.60
2017-08-25T14:17:55.024Z,29.60
2017-08-25T14:20:23.255Z,29.50
2017-08-25T14:22:51.498Z,29.50
2017-08-25T14:25:19.802Z,29.60
2017-08-25T14:27:48.126Z,29.50
2017-08-25T14:30:16.478Z,29.40
2017-08-25T14:32:44.804Z,29.40
2017-08-25T14:35:13.867Z,29.30
2017-08-25T14:37:43.067Z,29.30
2017-08-25T14:40:11.357Z,29.20
2017-08-25T14:42:40.420Z,29.00
2017-08-25T14:45:08.643Z,29.00
2017-08-25T14:47:37.808Z,28.90
2017-08-25T14:50:06.222Z,28.90
2017-08-25T14:52:34.603Z,28.90
2017-08-25T14:55:03.029Z,28.80
2017-08-25T14:57:31.273Z,28.80
2017-08-25T15:00:00.013Z,28.90
2017-08-25T15:02:28.484Z,28.80
2017-08-25T15:04:56.747Z,28.70
2017-08-25T15:07:25.073Z,28.70
2017-08-25T15:09:53.297Z,28.80
2017-08-25T15:12:21.546Z,28.80
2017-08-25T15:14:49.862Z,28.90
2017-08-25T15:17:18.240Z,28.80
2017-08-25T15:19:46.472Z,28.70
2017-08-25T15:22:15.158Z,28.60
2017-08-25T15:24:43.473Z,28.60
2017-08-25T15:27:11.758Z,28.50
2017-08-25T15:29:40.089Z,28.30
2017-08-25T15:32:08.340Z,28.40
2017-08-25T15:34:36.603Z,28.30
2017-08-25T15:37:04.868Z,28.20
2017-08-25T15:39:34.039Z,28.10
2017-08-25T15:42:02.319Z,28.10
2017-08-25T15:44:30.600Z,28.20
2017-08-25T15:46:58.840Z,28.10
2017-08-25T15:49:27.089Z,28.20
2017-08-25T15:51:55.333Z,28.30
2017-08-25T15:54:23.622Z,28.30
2017-08-25T15:56:52.661Z,28.20
2017-08-25T15:59:20.963Z,28.20
2017-08-25T16:01:49.309Z,28.20
2017-08-25T16:04:17.590Z,28.20
2017-08-25T16:06:46.058Z,28.20
2017-08-25T16:09:14.423Z,28.20
2017-08-25T16:11:42.758Z,28.20
2017-08-25T16:14:11.225Z,28.00
2017-08-25T16:16:39.578Z,27.90
2017-08-25T16:19:07.815Z,27.80
2017-08-25T16:21:36.145Z,27.80
2017-08-25T16:24:04.543Z,27.80
2017-08-25T16:26:32.770Z,27.80
2017-08-25T16:29:02.229Z,27.70
2017-08-25T16:31:30.473Z,27.60
2017-08-25T16:33:58.728Z,27.60
2017-08-25T16:36:27.101Z,27.50
2017-08-25T16:38:55.361Z,27.40
2017-08-25T16:41:23.626Z,27.30
2017-08-25T16:43:52.013Z,27.20
2017-08-25T16:46:20.298Z,27.20
2017-08-25T16:48:48.565Z,27.10
2017-08-25T16:51:17.589Z,26.80
2017-08-25T16:53:46.343Z,26.80
2017-08-25T16:56:14.609Z,26.80
2017-08-25T16:58:43.650Z,26.60
2017-08-25T17:01:12.225Z,26.50
2017-08-25T17:03:40.484Z,26.50
2017-08-25T17:06:08.795Z,26.40
2017-08-25T17:08:37.088Z,26.30
2017-08-25T17:11:05.342Z,26.10
2017-08-25T17:13:33.637Z,25.90
2017-08-25T17:16:01.879Z,25.80
2017-08-25T17:18:30.192Z,25.70
2017-08-25T17:20:58.451Z,25.50
2017-08-25T17:23:26.757Z,25.40
2017-08-25T17:25:55.459Z,25.30
2017-08-25T17:28:23.709Z,25.10
2017-08-25T17:30:52.770Z,24.80
2017-08-25T17:33:22.394Z,24.80
2017-08-25T17:35:50.679Z,24.70
2017-08-25T17:38:18.936Z,24.60
2017-08-25T17:40:47.187Z,24.50
2017-08-25T17:43:15.469Z,24.40
2017-08-25T17:45:46.176Z,24.40
2017-08-25T17:48:14.723Z,24.40
2017-08-25T17:50:49.173Z,24.30
2017-08-25T17:53:17.452Z,24.30
2017-08-25T17:55:45.923Z,24.20
2017-08-25T17:58:14.408Z,24.10
2017-08-25T18:00:43.218Z,23.90
2017-08-25T18:03:12.235Z,23.80
2017-08-25T18:05:40.709Z,23.80
2017-08-25T18:08:09.024Z,23.70
2017-08-25T18:10:37.387Z,23.60
2017-08-25T18:13:06.460Z,23.40
2017-08-25T18:15:34.998Z,23.40
2017-08-25T18:18:04.157Z,23.20
2017-08-25T18:20:32.415Z,23.20
2017-08-25T18:23:00.710Z,23.20
2017-08-25T18:25:29.063Z,23.30
2017-08-25T18:27:57.319Z,23.20
2017-08-25T18:30:25.635Z,23.30
2017-08-25T18:32:53.883Z,23.30
2017-08-25T18:35:22.134Z,23.20
2017-08-25T18:37:50.421Z,23.20
2017-08-25T18:40:18.711Z,23.20
2017-08-25T18:42:46.985Z,23.20
2017-08-25T18:45:15.395Z,23.20
2017-08-25T18:47:43.646Z,23.20
2017-08-25T18:50:12.163Z,23.20
2017-08-25T18:52:40.478Z,23.20
2017-08-25T18:55:08.789Z,23.20
2017-08-25T18:57:37.181Z,23.20
2017-08-25T19:00:05.546Z,23.20
2017-08-25T19:02:34.174Z,23.20
2017-08-25T19:05:02.692Z,23.20
2017-08-25T19:07:31.411Z,23.20
2017-08-25T19:09:59.720Z,23.30
2017-08-25T19:12:28.013Z,23.30
2017-08-25T19:14:56.319Z,23.30
2017-08-25T19:17:24.584Z,23.30
2017-08-25T19:19:52.841Z,23.30
2017-08-25T19:22:21.309Z,23.20
2017-08-25T19:24:49.779Z,23.30
2017-08-25T19:27:18.822Z,23.30
2017-08-25T19:29:47.388Z,23.30
2017-08-25T19:32:15.637Z,23.30
2017-08-25T19:34:43.925Z,23.30
2017-08-25T19:37:12.205Z,23.20
2017-08-25T19:39:40.483Z,23.20
2017-08-25T19:42:08.750Z,23.30
2017-08-25T19:44:37.244Z,23.30
2017-08-25T19:47:05.489Z,23.30
2017-08-25T19:49:33.791Z,23.30
2017-08-25T19:52:02.058Z,23.30
2017-08-25T19:54:30.317Z,23.30
2017-08-25T19:56:58.590Z,23.30
2017-08-25T19:59:27.628Z,23.30
2017-08-25T20:01:55.886Z,23.30
2017-08-25T20:04:24.421Z,23.30
2017-08-25T20:06:52.653Z,23.30
2017-08-25T20:09:21.043Z,23.30
2017-08-25T20:11:49.377Z,23.30
2017-08-25T20:14:18.100Z,23.30
2017-08-25T20:16:46.632Z,23.30
2017-08-25T20:19:14.925Z,23.30
2017-08-25T20:21:43.231Z,23.30
2017-08-25T20:24:12.055Z,23.30
2017-08-25T20:26:40.370Z,23.20
2017-08-25T20:29:08.693Z,23.20
2017-08-25T20:31:37.142Z,23.20
2017-08-25T20:34:05.471Z,23.20
2017-08-25T20:36:34.662Z,23.10
2017-08-25T20:39:04.376Z,23.10
2017-08-25T20:41:32.716Z,23.10
2017-08-25T20:44:01.700Z,23.10
2017-08-25T20:46:30.223Z,23.10
2017-08-25T20:48:59.313Z,23.10
2017-08-25T20:51:27.559Z,23.00
2017-08-25T20:53:55.797Z,23.00
2017-08-25T20:56:24.112Z,23.00
2017-08-25T20:58:52.470Z,23.00
2017-08-25T21:01:20.784Z,23.00
2017-08-25T21:03:49.105Z,22.90
2017-08-25T21:06:17.432Z,22.90
2017-08-25T21:08:45.805Z,22.90
2017-08-25T21:11:16.462Z,22.90
2017-08-25T21:13:44.736Z,22.90
2017-08-25T21:16:13.072Z,22.90
2017-08-25T21:18:41.316Z,22.90
2017-08-25T21:21:09.841Z,22.80
2017-08-25T21:23:38.070Z,22.80
2017-08-25T21:26:06.331Z,22.80
2017-08-25T21:28:35.916Z,22.80
2017-08-25T21:31:04.500Z,22.70
2017-08-25T21:33:33.690Z,22.70
2017-08-25T21:36:02.156Z,22.80
2017-08-25T21:38:30.510Z,22.80
2017-08-25T21:40:59.895Z,22.70
2017-08-25T21:43:28.237Z,22.70
2017-08-25T21:45:56.525Z,22.70
2017-08-25T21:48:24.944Z,22.70
2017-08-25T21:50:53.768Z,22.60
2017-08-25T21:53:22.308Z,22.60
2017-08-25T21:55:51.345Z,22.60
2017-08-25T21:58:19.837Z,22.60
2017-08-25T22:00:48.375Z,22.60
2017-08-25T22:03:16.755Z,22.50
2017-08-25T22:05:45.006Z,22.60
2017-08-25T22:08:13.298Z,22.50
2017-08-25T22:10:41.571Z,22.50
2017-08-25T22:13:10.668Z,22.50
2017-08-25T22:15:39.293Z,22.50
2017-08-25T22:18:07.535Z,22.50
2017-08-25T22:20:36.072Z,22.50
2017-08-25T22:23:04.435Z,22.50
2017-08-25T22:25:32.738Z,22.50
2017-08-25T22:28:01.000Z,22.50
2017-08-25T22:30:29.423Z,22.40
2017-08-25T22:32:57.678Z,22.40
2017-08-25T22:35:25.960Z,22.30
2017-08-25T22:37:54.243Z,22.30
2017-08-25T22:40:22.516Z,22.30
2017-08-25T22:42:50.944Z,22.30
2017-08-25T22:45:19.675Z,22.20
2017-08-25T22:47:48.771Z,22.20
2017-08-25T22:50:17.048Z,22.20
2017-08-25T22:52:45.378Z,22.20
2017-08-25T22:55:13.616Z,22.10
2017-08-25T22:57:41.905Z,22.10
2017-08-25T23:00:11.245Z,22.10
2017-08-25T23:02:40.474Z,22.10
2017-08-25T23:05:08.725Z,22.10
2017-08-25T23:07:37.966Z,22.10
2017-08-25T23:10:06.210Z,22.10
2017-08-25T23:12:34.531Z,22.10
2017-08-25T23:15:02.799Z,22.10
2017-08-25T23:17:31.221Z,22.10
2017-08-25T23:19:59.597Z,22.10
2017-08-25T23:22:27.876Z,22.10
2017-08-25T23:24:56.178Z,22.10
2017-08-25T23:27:24.456Z,22.10
2017-08-25T23:29:52.765Z,22.10
2017-08-25T23:32:21.011Z,22.10
2017-08-25T23:34:49.304Z,22.00
2017-08-25T23:37:17.584Z,22.00
2017-08-25T23:39:45.898Z,22.00
2017-08-25T23:42:14.324Z,22.00
2017-08-25T23:44:42.642Z,22.00
2017-08-25T23:47:10.868Z,22.00
2017-08-25T23:49:39.267Z,21.90
2017-08-25T23:52:07.546Z,21.90
2017-08-25T23:54:35.797Z,21.80
2017-08-25T23:57:04.082Z,21.80
2017-08-25T23:59:32.531Z,21.80
